sensor_id;sensor_type;location;lat;lon;timestamp;P1;durP1;ratioP1;P2;durP2;ratioP2
19402;SDS011;9837;48.888;8.998;2023-02-28T00:00:26;3.23;;;2.20;;
19402;SDS011;9837;48.888;8.998;2023-02-28T00:02:51;2.53;;;2.23;;
19402;SDS011;9837;48.888;8.998;2023-02-28T00:05:18;4.10;;;2.37;;
19402;SDS011;9837;48.888;8.998;2023-02-28T00:07:45;6.63;;;3.20;;
19402;SDS011;9837;48.888;8.998;2023-02-28T00:10:12;7.63;;;3.60;;
19402;SDS011;9837;48.888;8.998;2023-02-28T00:12:41;3.80;;;2.30;;
19402;SDS011;9837;48.888;8.998;2023-02-28T00:15:10;6.83;;;2.90;;
19402;SDS011;9837;48.888;8.998;2023-02-28T00:17:37;2.93;;;2.70;;
19402;SDS011;9837;48.888;8.998;2023-02-28T00:20:03;5.50;;;2.70;;
19402;SDS011;9837;48.888;8.998;2023-02-28T00:22:33;3.47;;;2.87;;
19402;SDS011;9837;48.888;8.998;2023-02-28T00:24:58;3.33;;;2.77;;
19402;SDS011;9837;48.888;8.998;2023-02-28T00:27:24;6.47;;;3.00;;
19402;SDS011;9837;48.888;8.998;2023-02-28T00:29:50;4.63;;;2.87;;
19402;SDS011;9837;48.888;8.998;2023-02-28T00:32:16;4.53;;;2.60;;
19402;SDS011;9837;48.888;8.998;2023-02-28T00:34:43;4.23;;;2.73;;
19402;SDS011;9837;48.888;8.998;2023-02-28T00:37:09;4.47;;;2.90;;
19402;SDS011;9837;48.888;8.998;2023-02-28T00:39:37;3.77;;;2.50;;
19402;SDS011;9837;48.888;8.998;2023-02-28T00:42:04;4.07;;;2.80;;
19402;SDS011;9837;48.888;8.998;2023-02-28T00:44:30;2.57;;;2.33;;
19402;SDS011;9837;48.888;8.998;2023-02-28T00:46:56;5.40;;;2.53;;
19402;SDS011;9837;48.888;8.998;2023-02-28T00:49:23;3.90;;;2.60;;
19402;SDS011;9837;48.888;8.998;2023-02-28T00:51:49;3.17;;;2.87;;
19402;SDS011;9837;48.888;8.998;2023-02-28T00:54:15;4.57;;;3.07;;
19402;SDS011;9837;48.888;8.998;2023-02-28T00:56:41;7.37;;;3.37;;
19402;SDS011;9837;48.888;8.998;2023-02-28T00:59:06;7.67;;;3.33;;
19402;SDS011;9837;48.888;8.998;2023-02-28T01:01:32;4.03;;;3.50;;
19402;SDS011;9837;48.888;8.998;2023-02-28T01:03:58;8.27;;;3.10;;
19402;SDS011;9837;48.888;8.998;2023-02-28T01:06:24;4.27;;;2.97;;
19402;SDS011;9837;48.888;8.998;2023-02-28T01:08:50;6.23;;;3.03;;
19402;SDS011;9837;48.888;8.998;2023-02-28T01:11:17;3.87;;;2.80;;
19402;SDS011;9837;48.888;8.998;2023-02-28T01:13:43;3.53;;;3.13;;
19402;SDS011;9837;48.888;8.998;2023-02-28T01:16:10;3.53;;;2.53;;
19402;SDS011;9837;48.888;8.998;2023-02-28T01:18:36;4.83;;;3.10;;
19402;SDS011;9837;48.888;8.998;2023-02-28T01:21:09;4.23;;;2.87;;
19402;SDS011;9837;48.888;8.998;2023-02-28T01:23:37;7.23;;;3.20;;
19402;SDS011;9837;48.888;8.998;2023-02-28T01:26:04;9.97;;;2.87;;
19402;SDS011;9837;48.888;8.998;2023-02-28T01:28:33;5.10;;;3.43;;
19402;SDS011;9837;48.888;8.998;2023-02-28T01:31:00;5.03;;;2.83;;
19402;SDS011;9837;48.888;8.998;2023-02-28T01:33:25;5.80;;;3.00;;
19402;SDS011;9837;48.888;8.998;2023-02-28T01:35:57;6.30;;;2.93;;
19402;SDS011;9837;48.888;8.998;2023-02-28T01:38:27;5.37;;;3.77;;
19402;SDS011;9837;48.888;8.998;2023-02-28T01:40:53;7.20;;;3.53;;
19402;SDS011;9837;48.888;8.998;2023-02-28T01:43:20;3.53;;;3.23;;
19402;SDS011;9837;48.888;8.998;2023-02-28T01:45:54;4.97;;;3.53;;
19402;SDS011;9837;48.888;8.998;2023-02-28T01:48:25;4.60;;;3.67;;
19402;SDS011;9837;48.888;8.998;2023-02-28T01:50:55;4.87;;;3.60;;
19402;SDS011;9837;48.888;8.998;2023-02-28T01:53:27;6.53;;;3.73;;
19402;SDS011;9837;48.888;8.998;2023-02-28T01:55:57;6.30;;;3.83;;
19402;SDS011;9837;48.888;8.998;2023-02-28T01:58:23;4.33;;;3.80;;
19402;SDS011;9837;48.888;8.998;2023-02-28T02:00:49;7.47;;;4.20;;
19402;SDS011;9837;48.888;8.998;2023-02-28T02:03:15;10.00;;;4.40;;
19402;SDS011;9837;48.888;8.998;2023-02-28T02:05:44;4.53;;;4.00;;
19402;SDS011;9837;48.888;8.998;2023-02-28T02:08:13;6.50;;;3.47;;
19402;SDS011;9837;48.888;8.998;2023-02-28T02:14:28;6.13;;;4.13;;
19402;SDS011;9837;48.888;8.998;2023-02-28T02:19:43;4.43;;;3.70;;
19402;SDS011;9837;48.888;8.998;2023-02-28T02:36:37;7.70;;;3.50;;
19402;SDS011;9837;48.888;8.998;2023-02-28T02:39:16;5.70;;;3.97;;
19402;SDS011;9837;48.888;8.998;2023-02-28T02:41:56;7.47;;;3.67;;
19402;SDS011;9837;48.888;8.998;2023-02-28T02:44:27;5.83;;;3.57;;
19402;SDS011;9837;48.888;8.998;2023-02-28T02:47:09;6.23;;;3.63;;
19402;SDS011;9837;48.888;8.998;2023-02-28T02:49:39;4.23;;;3.33;;
19402;SDS011;9837;48.888;8.998;2023-02-28T02:52:09;7.27;;;3.90;;
19402;SDS011;9837;48.888;8.998;2023-02-28T02:54:39;5.03;;;3.50;;
19402;SDS011;9837;48.888;8.998;2023-02-28T02:57:08;4.00;;;3.20;;
19402;SDS011;9837;48.888;8.998;2023-02-28T02:59:41;5.70;;;3.97;;
19402;SDS011;9837;48.888;8.998;2023-02-28T03:02:10;4.37;;;3.13;;
19402;SDS011;9837;48.888;8.998;2023-02-28T03:04:40;4.53;;;3.50;;
19402;SDS011;9837;48.888;8.998;2023-02-28T03:07:10;9.77;;;5.30;;
19402;SDS011;9837;48.888;8.998;2023-02-28T03:09:36;4.23;;;3.60;;
19402;SDS011;9837;48.888;8.998;2023-02-28T03:12:02;5.37;;;4.07;;
19402;SDS011;9837;48.888;8.998;2023-02-28T03:14:34;4.00;;;3.13;;
19402;SDS011;9837;48.888;8.998;2023-02-28T03:23:01;8.97;;;3.87;;
19402;SDS011;9837;48.888;8.998;2023-02-28T03:25:45;10.07;;;4.03;;
19402;SDS011;9837;48.888;8.998;2023-02-28T03:28:26;5.50;;;3.53;;
19402;SDS011;9837;48.888;8.998;2023-02-28T03:30:59;6.70;;;4.10;;
19402;SDS011;9837;48.888;8.998;2023-02-28T03:36:38;6.80;;;4.20;;
19402;SDS011;9837;48.888;8.998;2023-02-28T03:39:34;4.60;;;4.20;;
19402;SDS011;9837;48.888;8.998;2023-02-28T03:42:18;8.10;;;3.87;;
19402;SDS011;9837;48.888;8.998;2023-02-28T03:44:49;5.87;;;3.63;;
19402;SDS011;9837;48.888;8.998;2023-02-28T03:47:36;8.43;;;4.47;;
19402;SDS011;9837;48.888;8.998;2023-02-28T03:50:10;6.90;;;4.40;;
19402;SDS011;9837;48.888;8.998;2023-02-28T03:52:44;7.47;;;5.33;;
19402;SDS011;9837;48.888;8.998;2023-02-28T03:55:14;8.37;;;4.20;;
19402;SDS011;9837;48.888;8.998;2023-02-28T03:57:59;6.73;;;3.50;;
19402;SDS011;9837;48.888;8.998;2023-02-28T04:00:31;7.23;;;4.57;;
19402;SDS011;9837;48.888;8.998;2023-02-28T04:03:02;6.13;;;3.87;;
19402;SDS011;9837;48.888;8.998;2023-02-28T04:05:27;8.20;;;3.60;;
19402;SDS011;9837;48.888;8.998;2023-02-28T04:07:54;8.73;;;4.40;;
19402;SDS011;9837;48.888;8.998;2023-02-28T04:10:29;8.67;;;4.33;;
19402;SDS011;9837;48.888;8.998;2023-02-28T04:12:54;6.37;;;3.87;;
19402;SDS011;9837;48.888;8.998;2023-02-28T04:15:20;6.20;;;4.37;;
19402;SDS011;9837;48.888;8.998;2023-02-28T04:17:47;4.53;;;3.77;;
19402;SDS011;9837;48.888;8.998;2023-02-28T04:20:13;5.37;;;3.97;;
19402;SDS011;9837;48.888;8.998;2023-02-28T04:22:38;8.40;;;3.93;;
19402;SDS011;9837;48.888;8.998;2023-02-28T04:25:04;4.83;;;3.93;;
19402;SDS011;9837;48.888;8.998;2023-02-28T04:27:30;7.03;;;4.00;;
19402;SDS011;9837;48.888;8.998;2023-02-28T04:29:56;6.90;;;3.97;;
19402;SDS011;9837;48.888;8.998;2023-02-28T04:32:22;4.30;;;3.53;;
19402;SDS011;9837;48.888;8.998;2023-02-28T04:34:48;6.00;;;4.13;;
19402;SDS011;9837;48.888;8.998;2023-02-28T04:37:14;5.53;;;4.20;;
19402;SDS011;9837;48.888;8.998;2023-02-28T04:39:40;7.83;;;4.30;;
19402;SDS011;9837;48.888;8.998;2023-02-28T04:42:06;8.77;;;4.40;;
19402;SDS011;9837;48.888;8.998;2023-02-28T04:44:32;6.73;;;4.03;;
19402;SDS011;9837;48.888;8.998;2023-02-28T04:46:57;6.50;;;4.33;;
19402;SDS011;9837;48.888;8.998;2023-02-28T04:49:23;7.73;;;4.40;;
19402;SDS011;9837;48.888;8.998;2023-02-28T04:51:49;8.00;;;4.53;;
19402;SDS011;9837;48.888;8.998;2023-02-28T04:54:14;6.00;;;4.53;;
19402;SDS011;9837;48.888;8.998;2023-02-28T04:56:41;6.50;;;3.90;;
19402;SDS011;9837;48.888;8.998;2023-02-28T04:59:06;5.50;;;3.80;;
19402;SDS011;9837;48.888;8.998;2023-02-28T05:01:33;6.87;;;4.30;;
19402;SDS011;9837;48.888;8.998;2023-02-28T05:04:01;9.73;;;4.77;;
19402;SDS011;9837;48.888;8.998;2023-02-28T05:06:28;8.13;;;4.47;;
19402;SDS011;9837;48.888;8.998;2023-02-28T05:08:55;6.47;;;4.43;;
19402;SDS011;9837;48.888;8.998;2023-02-28T05:11:25;7.00;;;4.97;;
19402;SDS011;9837;48.888;8.998;2023-02-28T05:13:54;9.57;;;5.03;;
19402;SDS011;9837;48.888;8.998;2023-02-28T05:16:20;5.50;;;4.40;;
19402;SDS011;9837;48.888;8.998;2023-02-28T05:18:46;7.53;;;4.93;;
19402;SDS011;9837;48.888;8.998;2023-02-28T05:21:26;5.30;;;3.90;;
19402;SDS011;9837;48.888;8.998;2023-02-28T05:23:54;10.23;;;4.50;;
19402;SDS011;9837;48.888;8.998;2023-02-28T05:26:21;6.17;;;4.37;;
19402;SDS011;9837;48.888;8.998;2023-02-28T05:28:47;6.73;;;4.60;;
19402;SDS011;9837;48.888;8.998;2023-02-28T05:31:13;10.47;;;5.07;;
19402;SDS011;9837;48.888;8.998;2023-02-28T05:33:39;11.13;;;5.37;;
19402;SDS011;9837;48.888;8.998;2023-02-28T05:36:05;8.37;;;5.00;;
19402;SDS011;9837;48.888;8.998;2023-02-28T05:38:31;7.93;;;5.20;;
19402;SDS011;9837;48.888;8.998;2023-02-28T05:40:56;6.47;;;5.27;;
19402;SDS011;9837;48.888;8.998;2023-02-28T05:43:22;6.97;;;4.87;;
19402;SDS011;9837;48.888;8.998;2023-02-28T05:45:48;7.50;;;4.83;;
19402;SDS011;9837;48.888;8.998;2023-02-28T05:48:13;6.77;;;4.33;;
19402;SDS011;9837;48.888;8.998;2023-02-28T05:50:39;8.77;;;5.20;;
19402;SDS011;9837;48.888;8.998;2023-02-28T05:53:07;7.17;;;5.03;;
19402;SDS011;9837;48.888;8.998;2023-02-28T05:55:33;8.00;;;4.70;;
19402;SDS011;9837;48.888;8.998;2023-02-28T05:58:00;7.47;;;4.97;;
19402;SDS011;9837;48.888;8.998;2023-02-28T06:00:26;6.60;;;4.47;;
19402;SDS011;9837;48.888;8.998;2023-02-28T06:02:52;7.80;;;4.77;;
19402;SDS011;9837;48.888;8.998;2023-02-28T06:05:21;13.80;;;4.97;;
19402;SDS011;9837;48.888;8.998;2023-02-28T06:07:46;8.67;;;5.60;;
19402;SDS011;9837;48.888;8.998;2023-02-28T06:10:12;13.30;;;4.60;;
19402;SDS011;9837;48.888;8.998;2023-02-28T06:12:38;10.40;;;5.73;;
19402;SDS011;9837;48.888;8.998;2023-02-28T06:15:06;8.53;;;5.70;;
19402;SDS011;9837;48.888;8.998;2023-02-28T06:17:32;7.97;;;5.23;;
19402;SDS011;9837;48.888;8.998;2023-02-28T06:19:58;9.77;;;4.70;;
19402;SDS011;9837;48.888;8.998;2023-02-28T06:22:23;8.53;;;4.93;;
19402;SDS011;9837;48.888;8.998;2023-02-28T06:24:49;7.60;;;4.90;;
19402;SDS011;9837;48.888;8.998;2023-02-28T06:27:14;9.13;;;5.20;;
19402;SDS011;9837;48.888;8.998;2023-02-28T06:29:40;9.40;;;6.33;;
19402;SDS011;9837;48.888;8.998;2023-02-28T06:32:06;6.50;;;4.30;;
19402;SDS011;9837;48.888;8.998;2023-02-28T06:34:32;9.57;;;5.10;;
19402;SDS011;9837;48.888;8.998;2023-02-28T06:36:58;7.17;;;4.50;;
19402;SDS011;9837;48.888;8.998;2023-02-28T06:39:28;6.20;;;4.40;;
19402;SDS011;9837;48.888;8.998;2023-02-28T06:41:54;7.27;;;4.53;;
19402;SDS011;9837;48.888;8.998;2023-02-28T06:44:20;8.07;;;5.77;;
19402;SDS011;9837;48.888;8.998;2023-02-28T06:46:46;5.90;;;4.60;;
19402;SDS011;9837;48.888;8.998;2023-02-28T06:49:12;6.73;;;5.23;;
19402;SDS011;9837;48.888;8.998;2023-02-28T06:51:40;6.67;;;4.50;;
19402;SDS011;9837;48.888;8.998;2023-02-28T06:54:09;10.47;;;6.13;;
19402;SDS011;9837;48.888;8.998;2023-02-28T06:56:35;9.03;;;5.60;;
19402;SDS011;9837;48.888;8.998;2023-02-28T06:59:02;8.07;;;5.37;;
19402;SDS011;9837;48.888;8.998;2023-02-28T07:01:28;7.23;;;5.47;;
19402;SDS011;9837;48.888;8.998;2023-02-28T07:03:54;23.87;;;9.53;;
19402;SDS011;9837;48.888;8.998;2023-02-28T07:06:20;8.03;;;4.90;;
19402;SDS011;9837;48.888;8.998;2023-02-28T07:08:50;10.53;;;5.40;;
19402;SDS011;9837;48.888;8.998;2023-02-28T07:11:17;8.20;;;5.33;;
19402;SDS011;9837;48.888;8.998;2023-02-28T07:13:44;7.73;;;5.03;;
19402;SDS011;9837;48.888;8.998;2023-02-28T07:16:09;9.03;;;4.70;;
19402;SDS011;9837;48.888;8.998;2023-02-28T07:18:36;11.50;;;5.33;;
19402;SDS011;9837;48.888;8.998;2023-02-28T07:21:03;9.07;;;5.33;;
19402;SDS011;9837;48.888;8.998;2023-02-28T07:23:30;11.40;;;5.00;;
19402;SDS011;9837;48.888;8.998;2023-02-28T07:25:56;10.37;;;6.10;;
19402;SDS011;9837;48.888;8.998;2023-02-28T07:28:22;11.47;;;4.47;;
19402;SDS011;9837;48.888;8.998;2023-02-28T07:30:48;8.27;;;5.30;;
19402;SDS011;9837;48.888;8.998;2023-02-28T07:33:14;14.07;;;5.63;;
19402;SDS011;9837;48.888;8.998;2023-02-28T07:35:40;11.90;;;5.97;;
19402;SDS011;9837;48.888;8.998;2023-02-28T07:38:06;11.00;;;5.40;;
19402;SDS011;9837;48.888;8.998;2023-02-28T07:40:35;7.07;;;4.93;;
19402;SDS011;9837;48.888;8.998;2023-02-28T07:43:01;9.40;;;5.73;;
19402;SDS011;9837;48.888;8.998;2023-02-28T07:45:28;10.73;;;5.23;;
19402;SDS011;9837;48.888;8.998;2023-02-28T07:47:54;10.17;;;5.40;;
19402;SDS011;9837;48.888;8.998;2023-02-28T07:50:20;9.67;;;6.60;;
19402;SDS011;9837;48.888;8.998;2023-02-28T07:52:46;9.20;;;6.17;;
19402;SDS011;9837;48.888;8.998;2023-02-28T07:55:12;10.20;;;6.27;;
19402;SDS011;9837;48.888;8.998;2023-02-28T07:57:39;10.30;;;5.33;;
19402;SDS011;9837;48.888;8.998;2023-02-28T08:00:05;9.23;;;5.70;;
19402;SDS011;9837;48.888;8.998;2023-02-28T08:02:35;7.27;;;5.53;;
19402;SDS011;9837;48.888;8.998;2023-02-28T08:05:01;8.83;;;5.63;;
19402;SDS011;9837;48.888;8.998;2023-02-28T08:07:27;10.20;;;5.63;;
19402;SDS011;9837;48.888;8.998;2023-02-28T08:09:53;8.87;;;5.67;;
19402;SDS011;9837;48.888;8.998;2023-02-28T08:12:19;7.53;;;5.27;;
19402;SDS011;9837;48.888;8.998;2023-02-28T08:14:45;13.00;;;5.83;;
19402;SDS011;9837;48.888;8.998;2023-02-28T08:17:10;17.07;;;8.23;;
19402;SDS011;9837;48.888;8.998;2023-02-28T08:19:36;10.17;;;5.97;;
19402;SDS011;9837;48.888;8.998;2023-02-28T08:22:01;6.80;;;5.03;;
19402;SDS011;9837;48.888;8.998;2023-02-28T08:24:27;11.07;;;7.47;;
19402;SDS011;9837;48.888;8.998;2023-02-28T08:26:53;9.27;;;5.73;;
19402;SDS011;9837;48.888;8.998;2023-02-28T08:29:19;8.93;;;5.30;;
19402;SDS011;9837;48.888;8.998;2023-02-28T08:31:45;8.63;;;5.47;;
19402;SDS011;9837;48.888;8.998;2023-02-28T08:34:11;11.10;;;5.90;;
19402;SDS011;9837;48.888;8.998;2023-02-28T08:36:38;11.93;;;6.43;;
19402;SDS011;9837;48.888;8.998;2023-02-28T08:39:04;18.40;;;5.63;;
19402;SDS011;9837;48.888;8.998;2023-02-28T08:41:31;8.13;;;5.70;;
19402;SDS011;9837;48.888;8.998;2023-02-28T08:43:57;8.47;;;5.73;;
19402;SDS011;9837;48.888;8.998;2023-02-28T08:46:23;11.37;;;6.70;;
19402;SDS011;9837;48.888;8.998;2023-02-28T08:48:51;10.43;;;6.47;;
19402;SDS011;9837;48.888;8.998;2023-02-28T08:51:18;11.20;;;6.80;;
19402;SDS011;9837;48.888;8.998;2023-02-28T08:53:47;8.47;;;6.17;;
19402;SDS011;9837;48.888;8.998;2023-02-28T08:56:14;9.70;;;6.47;;
19402;SDS011;9837;48.888;8.998;2023-02-28T08:58:41;10.67;;;6.63;;
19402;SDS011;9837;48.888;8.998;2023-02-28T09:01:08;9.40;;;5.60;;
19402;SDS011;9837;48.888;8.998;2023-02-28T09:03:35;9.13;;;5.93;;
19402;SDS011;9837;48.888;8.998;2023-02-28T09:06:00;10.67;;;6.07;;
19402;SDS011;9837;48.888;8.998;2023-02-28T09:08:28;10.67;;;7.00;;
19402;SDS011;9837;48.888;8.998;2023-02-28T09:10:55;9.60;;;6.53;;
19402;SDS011;9837;48.888;8.998;2023-02-28T09:13:22;12.23;;;6.23;;
19402;SDS011;9837;48.888;8.998;2023-02-28T09:15:49;9.90;;;6.57;;
19402;SDS011;9837;48.888;8.998;2023-02-28T09:18:15;11.13;;;6.43;;
19402;SDS011;9837;48.888;8.998;2023-02-28T09:20:41;22.67;;;9.70;;
19402;SDS011;9837;48.888;8.998;2023-02-28T09:23:08;15.90;;;6.40;;
19402;SDS011;9837;48.888;8.998;2023-02-28T09:25:35;10.77;;;6.50;;
19402;SDS011;9837;48.888;8.998;2023-02-28T09:28:01;11.03;;;6.17;;
19402;SDS011;9837;48.888;8.998;2023-02-28T09:30:26;11.07;;;6.93;;
19402;SDS011;9837;48.888;8.998;2023-02-28T09:32:52;10.63;;;6.53;;
19402;SDS011;9837;48.888;8.998;2023-02-28T09:35:18;8.13;;;6.00;;
19402;SDS011;9837;48.888;8.998;2023-02-28T09:37:46;10.13;;;6.83;;
19402;SDS011;9837;48.888;8.998;2023-02-28T09:40:13;9.70;;;6.40;;
19402;SDS011;9837;48.888;8.998;2023-02-28T09:42:42;12.23;;;7.47;;
19402;SDS011;9837;48.888;8.998;2023-02-28T09:45:18;10.97;;;6.77;;
19402;SDS011;9837;48.888;8.998;2023-02-28T09:47:49;10.33;;;7.17;;
19402;SDS011;9837;48.888;8.998;2023-02-28T09:53:15;11.70;;;6.87;;
19402;SDS011;9837;48.888;8.998;2023-02-28T09:55:58;11.13;;;6.90;;
19402;SDS011;9837;48.888;8.998;2023-02-28T09:58:30;11.53;;;7.03;;
19402;SDS011;9837;48.888;8.998;2023-02-28T10:01:05;9.67;;;6.10;;
19402;SDS011;9837;48.888;8.998;2023-02-28T10:03:42;13.27;;;6.97;;
19402;SDS011;9837;48.888;8.998;2023-02-28T10:06:19;11.60;;;7.40;;
19402;SDS011;9837;48.888;8.998;2023-02-28T10:11:26;9.77;;;6.73;;
19402;SDS011;9837;48.888;8.998;2023-02-28T10:19:19;12.33;;;7.53;;
19402;SDS011;9837;48.888;8.998;2023-02-28T10:22:11;13.77;;;6.33;;
19402;SDS011;9837;48.888;8.998;2023-02-28T10:24:54;10.97;;;7.83;;
19402;SDS011;9837;48.888;8.998;2023-02-28T10:27:25;12.87;;;7.20;;
19402;SDS011;9837;48.888;8.998;2023-02-28T10:29:56;10.97;;;6.33;;
19402;SDS011;9837;48.888;8.998;2023-02-28T10:32:34;10.53;;;6.83;;
19402;SDS011;9837;48.888;8.998;2023-02-28T10:37:27;8.63;;;5.73;;
19402;SDS011;9837;48.888;8.998;2023-02-28T10:39:53;11.60;;;6.93;;
19402;SDS011;9837;48.888;8.998;2023-02-28T10:47:40;11.03;;;7.10;;
19402;SDS011;9837;48.888;8.998;2023-02-28T10:50:26;11.00;;;6.63;;
19402;SDS011;9837;48.888;8.998;2023-02-28T10:53:24;7.83;;;6.50;;
19402;SDS011;9837;48.888;8.998;2023-02-28T10:56:13;11.07;;;6.90;;
19402;SDS011;9837;48.888;8.998;2023-02-28T10:58:52;9.67;;;6.47;;
19402;SDS011;9837;48.888;8.998;2023-02-28T11:04:11;11.80;;;7.30;;
19402;SDS011;9837;48.888;8.998;2023-02-28T11:06:42;14.07;;;7.87;;
19402;SDS011;9837;48.888;8.998;2023-02-28T11:09:16;11.63;;;7.90;;
19402;SDS011;9837;48.888;8.998;2023-02-28T11:11:54;11.10;;;6.67;;
19402;SDS011;9837;48.888;8.998;2023-02-28T11:14:22;11.17;;;7.43;;
19402;SDS011;9837;48.888;8.998;2023-02-28T11:16:53;11.83;;;7.20;;
19402;SDS011;9837;48.888;8.998;2023-02-28T11:19:45;14.67;;;7.30;;
19402;SDS011;9837;48.888;8.998;2023-02-28T11:22:10;10.70;;;6.67;;
19402;SDS011;9837;48.888;8.998;2023-02-28T11:24:42;14.57;;;7.10;;
19402;SDS011;9837;48.888;8.998;2023-02-28T11:29:54;9.33;;;6.23;;
19402;SDS011;9837;48.888;8.998;2023-02-28T11:32:23;12.13;;;7.33;;
19402;SDS011;9837;48.888;8.998;2023-02-28T11:37:28;13.20;;;7.10;;
19402;SDS011;9837;48.888;8.998;2023-02-28T11:39:56;14.20;;;7.53;;
19402;SDS011;9837;48.888;8.998;2023-02-28T11:45:00;9.73;;;6.63;;
19402;SDS011;9837;48.888;8.998;2023-02-28T11:47:44;12.57;;;7.10;;
19402;SDS011;9837;48.888;8.998;2023-02-28T11:52:53;11.63;;;7.43;;
19402;SDS011;9837;48.888;8.998;2023-02-28T11:55:27;13.83;;;7.57;;
19402;SDS011;9837;48.888;8.998;2023-02-28T12:00:39;11.63;;;6.17;;
19402;SDS011;9837;48.888;8.998;2023-02-28T12:11:36;11.43;;;7.23;;
19402;SDS011;9837;48.888;8.998;2023-02-28T12:17:41;12.13;;;7.33;;
19402;SDS011;9837;48.888;8.998;2023-02-28T12:22:31;9.10;;;7.17;;
19402;SDS011;9837;48.888;8.998;2023-02-28T12:27:33;11.03;;;7.37;;
19402;SDS011;9837;48.888;8.998;2023-02-28T12:30:24;11.37;;;7.43;;
19402;SDS011;9837;48.888;8.998;2023-02-28T12:32:58;11.80;;;7.43;;
19402;SDS011;9837;48.888;8.998;2023-02-28T12:35:38;11.40;;;7.17;;
19402;SDS011;9837;48.888;8.998;2023-02-28T12:38:13;11.77;;;7.57;;
19402;SDS011;9837;48.888;8.998;2023-02-28T12:40:49;12.10;;;7.50;;
19402;SDS011;9837;48.888;8.998;2023-02-28T12:43:19;11.70;;;6.77;;
19402;SDS011;9837;48.888;8.998;2023-02-28T12:45:58;9.13;;;6.97;;
19402;SDS011;9837;48.888;8.998;2023-02-28T12:48:37;12.97;;;7.77;;
19402;SDS011;9837;48.888;8.998;2023-02-28T12:51:09;11.30;;;6.80;;
19402;SDS011;9837;48.888;8.998;2023-02-28T12:59:20;11.17;;;6.63;;
19402;SDS011;9837;48.888;8.998;2023-02-28T13:02:10;7.70;;;6.53;;
19402;SDS011;9837;48.888;8.998;2023-02-28T13:04:57;11.80;;;7.00;;
19402;SDS011;9837;48.888;8.998;2023-02-28T13:10:19;10.73;;;6.90;;
19402;SDS011;9837;48.888;8.998;2023-02-28T13:12:49;11.87;;;7.70;;
19402;SDS011;9837;48.888;8.998;2023-02-28T13:15:26;11.70;;;7.70;;
19402;SDS011;9837;48.888;8.998;2023-02-28T13:17:55;7.97;;;6.23;;
19402;SDS011;9837;48.888;8.998;2023-02-28T13:20:26;16.70;;;6.93;;
19402;SDS011;9837;48.888;8.998;2023-02-28T13:22:57;9.87;;;6.60;;
19402;SDS011;9837;48.888;8.998;2023-02-28T13:27:58;10.60;;;7.10;;
19402;SDS011;9837;48.888;8.998;2023-02-28T13:38:58;16.07;;;7.00;;
19402;SDS011;9837;48.888;8.998;2023-02-28T13:46:27;9.13;;;6.40;;
19402;SDS011;9837;48.888;8.998;2023-02-28T13:48:53;13.13;;;7.50;;
19402;SDS011;9837;48.888;8.998;2023-02-28T13:51:35;12.27;;;7.00;;
19402;SDS011;9837;48.888;8.998;2023-02-28T13:54:13;10.20;;;6.80;;
19402;SDS011;9837;48.888;8.998;2023-02-28T13:57:01;7.80;;;6.10;;
19402;SDS011;9837;48.888;8.998;2023-02-28T13:59:50;10.13;;;7.00;;
19402;SDS011;9837;48.888;8.998;2023-02-28T14:07:37;13.47;;;7.70;;
19402;SDS011;9837;48.888;8.998;2023-02-28T14:10:08;11.70;;;6.60;;
19402;SDS011;9837;48.888;8.998;2023-02-28T14:18:17;9.10;;;6.83;;
19402;SDS011;9837;48.888;8.998;2023-02-28T14:20:58;8.77;;;6.97;;
19402;SDS011;9837;48.888;8.998;2023-02-28T14:27:05;9.80;;;7.10;;
19402;SDS011;9837;48.888;8.998;2023-02-28T14:32:14;14.27;;;7.30;;
19402;SDS011;9837;48.888;8.998;2023-02-28T14:37:32;11.13;;;7.00;;
19402;SDS011;9837;48.888;8.998;2023-02-28T14:40:01;10.33;;;7.00;;
19402;SDS011;9837;48.888;8.998;2023-02-28T14:44:59;10.67;;;7.80;;
19402;SDS011;9837;48.888;8.998;2023-02-28T14:47:27;10.43;;;7.20;;
19402;SDS011;9837;48.888;8.998;2023-02-28T14:49:56;18.80;;;7.27;;
19402;SDS011;9837;48.888;8.998;2023-02-28T14:52:23;8.50;;;6.83;;
19402;SDS011;9837;48.888;8.998;2023-02-28T14:54:52;11.07;;;7.87;;
19402;SDS011;9837;48.888;8.998;2023-02-28T14:57:30;9.77;;;7.20;;
19402;SDS011;9837;48.888;8.998;2023-02-28T14:59:59;11.23;;;7.47;;
19402;SDS011;9837;48.888;8.998;2023-02-28T15:02:45;12.60;;;7.53;;
19402;SDS011;9837;48.888;8.998;2023-02-28T15:07:43;10.63;;;7.47;;
19402;SDS011;9837;48.888;8.998;2023-02-28T15:10:20;10.30;;;7.30;;
19402;SDS011;9837;48.888;8.998;2023-02-28T15:12:49;14.70;;;8.50;;
19402;SDS011;9837;48.888;8.998;2023-02-28T15:15:24;13.63;;;8.30;;
19402;SDS011;9837;48.888;8.998;2023-02-28T15:17:54;13.03;;;7.77;;
19402;SDS011;9837;48.888;8.998;2023-02-28T15:20:23;15.77;;;7.93;;
19402;SDS011;9837;48.888;8.998;2023-02-28T15:22:50;11.67;;;7.20;;
19402;SDS011;9837;48.888;8.998;2023-02-28T15:25:21;11.53;;;6.93;;
19402;SDS011;9837;48.888;8.998;2023-02-28T15:27:52;10.33;;;7.80;;
19402;SDS011;9837;48.888;8.998;2023-02-28T15:30:21;13.50;;;7.70;;
19402;SDS011;9837;48.888;8.998;2023-02-28T15:35:38;13.67;;;8.67;;
19402;SDS011;9837;48.888;8.998;2023-02-28T15:40:53;10.17;;;7.23;;
19402;SDS011;9837;48.888;8.998;2023-02-28T15:43:27;10.97;;;7.93;;
19402;SDS011;9837;48.888;8.998;2023-02-28T15:45:58;12.47;;;8.17;;
19402;SDS011;9837;48.888;8.998;2023-02-28T15:48:27;12.57;;;8.27;;
19402;SDS011;9837;48.888;8.998;2023-02-28T15:51:12;9.77;;;7.40;;
19402;SDS011;9837;48.888;8.998;2023-02-28T15:56:43;12.23;;;8.33;;
19402;SDS011;9837;48.888;8.998;2023-02-28T15:59:18;11.53;;;7.83;;
19402;SDS011;9837;48.888;8.998;2023-02-28T16:01:46;12.00;;;8.30;;
19402;SDS011;9837;48.888;8.998;2023-02-28T16:04:16;11.97;;;8.13;;
19402;SDS011;9837;48.888;8.998;2023-02-28T16:06:43;11.10;;;8.60;;
19402;SDS011;9837;48.888;8.998;2023-02-28T16:09:11;14.23;;;9.32;;
19402;SDS011;9837;48.888;8.998;2023-02-28T16:11:40;16.00;;;8.53;;
19402;SDS011;9837;48.888;8.998;2023-02-28T16:14:14;11.73;;;7.77;;
19402;SDS011;9837;48.888;8.998;2023-02-28T16:16:44;12.33;;;8.10;;
19402;SDS011;9837;48.888;8.998;2023-02-28T16:19:11;16.43;;;8.27;;
19402;SDS011;9837;48.888;8.998;2023-02-28T16:21:37;13.50;;;7.83;;
19402;SDS011;9837;48.888;8.998;2023-02-28T16:24:02;12.43;;;8.13;;
19402;SDS011;9837;48.888;8.998;2023-02-28T16:26:28;15.13;;;8.13;;
19402;SDS011;9837;48.888;8.998;2023-02-28T16:28:54;12.30;;;8.70;;
19402;SDS011;9837;48.888;8.998;2023-02-28T16:31:20;11.37;;;8.00;;
19402;SDS011;9837;48.888;8.998;2023-02-28T16:33:46;14.83;;;7.97;;
19402;SDS011;9837;48.888;8.998;2023-02-28T16:36:19;8.77;;;7.20;;
19402;SDS011;9837;48.888;8.998;2023-02-28T16:38:48;17.07;;;7.77;;
19402;SDS011;9837;48.888;8.998;2023-02-28T16:41:18;16.10;;;8.53;;
19402;SDS011;9837;48.888;8.998;2023-02-28T16:43:46;11.60;;;7.80;;
19402;SDS011;9837;48.888;8.998;2023-02-28T16:46:13;11.57;;;7.93;;
19402;SDS011;9837;48.888;8.998;2023-02-28T16:48:40;15.87;;;8.80;;
19402;SDS011;9837;48.888;8.998;2023-02-28T16:51:06;20.07;;;10.37;;
19402;SDS011;9837;48.888;8.998;2023-02-28T16:53:36;15.07;;;9.63;;
19402;SDS011;9837;48.888;8.998;2023-02-28T16:56:01;13.13;;;9.07;;
19402;SDS011;9837;48.888;8.998;2023-02-28T16:58:27;14.33;;;9.13;;
19402;SDS011;9837;48.888;8.998;2023-02-28T17:00:53;12.80;;;8.03;;
19402;SDS011;9837;48.888;8.998;2023-02-28T17:03:26;13.30;;;9.03;;
19402;SDS011;9837;48.888;8.998;2023-02-28T17:05:53;12.13;;;7.63;;
19402;SDS011;9837;48.888;8.998;2023-02-28T17:08:19;13.97;;;8.63;;
19402;SDS011;9837;48.888;8.998;2023-02-28T17:10:44;16.07;;;10.03;;
19402;SDS011;9837;48.888;8.998;2023-02-28T17:13:10;16.03;;;9.87;;
19402;SDS011;9837;48.888;8.998;2023-02-28T17:15:36;13.67;;;8.80;;
19402;SDS011;9837;48.888;8.998;2023-02-28T17:18:03;14.17;;;9.27;;
19402;SDS011;9837;48.888;8.998;2023-02-28T17:20:29;17.87;;;11.43;;
19402;SDS011;9837;48.888;8.998;2023-02-28T17:22:55;15.40;;;9.43;;
19402;SDS011;9837;48.888;8.998;2023-02-28T17:25:22;16.63;;;9.80;;
19402;SDS011;9837;48.888;8.998;2023-02-28T17:27:48;17.90;;;10.27;;